AKDT,Max TemperatureF,Mean TemperatureF,Min TemperatureF,Max Dew PointF,MeanDew PointF,Min DewpointF,Max Humidity, Mean Humidity, Min Humidity, Max Sea Level PressureIn, Mean Sea Level PressureIn, Min Sea Level PressureIn, Max VisibilityMiles, Mean VisibilityMiles, Min VisibilityMiles, Max Wind SpeedMPH, Mean Wind SpeedMPH, Max Gust SpeedMPH,PrecipitationIn, CloudCover, Events, WindDirDegrees
2013-8-1,86,70,53,52,47,45,77,49,23,30.04,29.95,29.81,15,13,10,9,3,,0.00,2,,66
2013-8-2,82,70,57,50,45,37,67,42,20,29.86,29.82,29.71,15,13,10,9,6,,0.00,4,,113
2013-8-3,82,68,55,46,44,38,69,42,21,29.73,29.68,29.64,10,10,10,16,4,28,0.00,2,Rain,164
2013-8-4,73,64,55,49,44,41,72,46,30,29.91,29.83,29.75,10,10,10,14,6,,0.00,2,,260
2013-8-5,75,63,51,49,45,39,88,56,27,29.95,29.91,29.86,13,11,9,7,4,,0.00,4,,112
2013-8-6,80,65,50,52,43,36,76,46,20,29.96,29.89,29.80,15,12,10,14,4,18,0.00,5,,118
2013-8-7,84,68,51,52,44,37,74,45,19,29.82,29.71,29.60,10,9,7,15,2,20,0.00,3,Rain,108
2013-8-8,80,66,53,48,42,36,72,45,20,29.68,29.64,29.60,13,11,10,6,2,,0.00,2,,92
2013-8-9,71,62,53,53,45,39,72,56,31,29.69,29.67,29.65,10,5,2,6,4,,0.01,6,Rain,82
2013-8-10,68,60,53,52,47,43,82,63,40,29.99,29.80,29.70,10,5,2,14,3,,0.00,7,Rain,63
2013-8-11,78,62,46,47,44,42,86,58,29,30.07,30.01,29.93,10,10,10,8,3,,0.00,2,,3
2013-8-12,75,64,53,55,52,48,82,63,47,30.06,30.02,29.97,10,6,4,12,5,,0.00,4,,208
2013-8-13,78,66,53,57,53,50,94,68,42,30.00,29.92,29.82,10,7,6,8,3,,0.00,4,,108
2013-8-14,69,62,55,56,52,48,94,70,46,29.91,29.86,29.82,13,9,2,14,5,,0.00,6,Rain,252
2013-8-15,64,58,53,58,53,48,96,81,68,29.87,29.79,29.70,13,10,2,12,4,,0.02,7,Rain,277
2013-8-16,57,55,53,56,53,50,100,93,81,29.71,29.69,29.63,10,5,0,6,3,,0.15,7,Fog,158
2013-8-17,73,60,46,51,48,44,90,66,37,29.64,29.57,29.49,10,10,10,10,3,,0.02,3,,326
2013-8-18,68,60,52,54,50,48,89,67,49,29.55,29.52,29.49,10,10,10,9,4,,0.01,6,,279
2013-8-19,64,58,51,53,48,43,92,73,45,29.66,29.61,29.56,13,10,7,9,5,,0.00,6,Rain,131
2013-8-20,55,52,48,52,49,45,94,89,76,29.79,29.71,29.65,13,7,0,16,6,,0.01,7,Fog-Rain,193
2013-8-21,62,53,44,46,43,37,100,80,39,29.83,29.79,29.71,13,9,2,7,4,,0.01,6,Rain,84
2013-8-22,66,54,43,52,43,37,89,68,43,29.73,29.66,29.58,13,11,6,12,3,,0.01,6,Rain,146
2013-8-23,55,53,50,52,49,42,100,88,67,29.70,29.56,29.53,10,6,1,12,5,,0.15,8,Rain,213
2013-8-24,61,52,42,42,36,30,85,58,32,29.95,29.86,29.72,10,10,10,12,5,23,0.00,2,,46
2013-8-25,62,48,33,33,30,27,86,54,28,29.96,29.86,29.76,10,10,10,9,5,,0.00,0,,76
2013-8-26,64,48,33,34,31,28,87,50,26,29.85,29.82,29.78,15,12,10,12,5,,0.01,1,,70
2013-8-27,64,50,35,46,37,32,87,60,37,29.83,29.77,29.65,15,12,10,8,3,,0.00,4,Rain,55
2013-8-28,57,52,48,47,44,39,93,73,51,29.73,29.70,29.66,13,10,7,10,5,,0.01,7,Rain,237
2013-8-29,55,52,48,48,47,43,90,83,76,29.87,29.76,29.67,13,11,10,6,2,,0.02,7,Rain,286
2013-8-30,50,49,48,48,45,37,94,86,61,29.98,29.92,29.88,10,10,9,6,3,,0.02,8,Rain,267
2013-8-31,51,46,39,37,31,26,86,58,38,30.01,29.98,29.94,10,10,10,7,2,,0.00,4,,322